sensor_id;sensor_type;location;lat;lon;timestamp;temperature;humidity
43561;DHT22;32305;46.410;17.394;2022-12-18T00:01:19;19.80;34.40
43561;DHT22;32305;46.410;17.394;2022-12-18T00:03:47;19.80;34.40
43561;DHT22;32305;46.410;17.394;2022-12-18T00:06:15;19.80;34.40
43561;DHT22;32305;46.410;17.394;2022-12-18T00:08:43;19.80;34.50
43561;DHT22;32305;46.410;17.394;2022-12-18T00:11:13;19.80;34.50
43561;DHT22;32305;46.410;17.394;2022-12-18T00:13:40;19.80;34.50
43561;DHT22;32305;46.410;17.394;2022-12-18T00:16:14;19.80;34.40
43561;DHT22;32305;46.410;17.394;2022-12-18T00:18:42;19.80;34.40
43561;DHT22;32305;46.410;17.394;2022-12-18T00:21:11;19.80;34.40
43561;DHT22;32305;46.410;17.394;2022-12-18T00:23:40;19.80;34.40
43561;DHT22;32305;46.410;17.394;2022-12-18T00:26:18;19.80;34.40
43561;DHT22;32305;46.410;17.394;2022-12-18T00:28:46;19.90;34.40
43561;DHT22;32305;46.410;17.394;2022-12-18T00:31:15;19.80;34.40
43561;DHT22;32305;46.410;17.394;2022-12-18T00:33:43;19.80;34.40
43561;DHT22;32305;46.410;17.394;2022-12-18T00:36:14;19.90;34.40
43561;DHT22;32305;46.410;17.394;2022-12-18T00:38:41;19.80;34.40
43561;DHT22;32305;46.410;17.394;2022-12-18T00:41:10;19.80;34.30
43561;DHT22;32305;46.410;17.394;2022-12-18T00:43:39;19.80;34.30
43561;DHT22;32305;46.410;17.394;2022-12-18T00:46:07;19.80;34.30
43561;DHT22;32305;46.410;17.394;2022-12-18T00:48:35;19.80;34.30
43561;DHT22;32305;46.410;17.394;2022-12-18T00:51:02;19.80;34.30
43561;DHT22;32305;46.410;17.394;2022-12-18T00:53:29;19.80;34.30
43561;DHT22;32305;46.410;17.394;2022-12-18T00:55:56;19.80;34.30
43561;DHT22;32305;46.410;17.394;2022-12-18T00:58:23;19.80;34.40
43561;DHT22;32305;46.410;17.394;2022-12-18T01:00:50;19.80;34.30
43561;DHT22;32305;46.410;17.394;2022-12-18T01:03:18;19.80;34.40
43561;DHT22;32305;46.410;17.394;2022-12-18T01:05:45;19.80;34.30
43561;DHT22;32305;46.410;17.394;2022-12-18T01:08:12;19.80;34.40
43561;DHT22;32305;46.410;17.394;2022-12-18T01:10:42;19.80;34.40
43561;DHT22;32305;46.410;17.394;2022-12-18T01:13:09;19.80;34.30
43561;DHT22;32305;46.410;17.394;2022-12-18T01:15:36;19.70;34.30
43561;DHT22;32305;46.410;17.394;2022-12-18T01:18:07;19.80;34.40
43561;DHT22;32305;46.410;17.394;2022-12-18T01:20:34;19.80;34.40
43561;DHT22;32305;46.410;17.394;2022-12-18T01:23:01;19.70;34.30
43561;DHT22;32305;46.410;17.394;2022-12-18T01:25:28;19.70;34.30
43561;DHT22;32305;46.410;17.394;2022-12-18T01:27:55;19.70;34.30
43561;DHT22;32305;46.410;17.394;2022-12-18T01:30:22;19.70;34.40
43561;DHT22;32305;46.410;17.394;2022-12-18T01:32:49;19.70;34.30
43561;DHT22;32305;46.410;17.394;2022-12-18T01:35:16;19.70;34.40
43561;DHT22;32305;46.410;17.394;2022-12-18T01:37:43;19.70;34.40
43561;DHT22;32305;46.410;17.394;2022-12-18T01:40:10;19.70;34.40
43561;DHT22;32305;46.410;17.394;2022-12-18T01:42:37;19.70;34.40
43561;DHT22;32305;46.410;17.394;2022-12-18T01:45:25;19.70;34.40
43561;DHT22;32305;46.410;17.394;2022-12-18T01:47:59;19.70;34.40
43561;DHT22;32305;46.410;17.394;2022-12-18T01:50:38;19.70;34.40
43561;DHT22;32305;46.410;17.394;2022-12-18T01:53:17;19.70;34.40
43561;DHT22;32305;46.410;17.394;2022-12-18T01:55:51;19.70;34.90
43561;DHT22;32305;46.410;17.394;2022-12-18T01:58:24;19.70;34.40
43561;DHT22;32305;46.410;17.394;2022-12-18T02:00:55;19.70;34.40
43561;DHT22;32305;46.410;17.394;2022-12-18T02:03:22;19.70;34.40
43561;DHT22;32305;46.410;17.394;2022-12-18T02:06:20;19.70;34.40
43561;DHT22;32305;46.410;17.394;2022-12-18T02:09:13;19.60;34.40
43561;DHT22;32305;46.410;17.394;2022-12-18T02:12:00;19.70;34.40
43561;DHT22;32305;46.410;17.394;2022-12-18T02:15:00;19.70;34.40
43561;DHT22;32305;46.410;17.394;2022-12-18T02:17:39;19.70;34.40
43561;DHT22;32305;46.410;17.394;2022-12-18T02:20:18;19.70;34.40
43561;DHT22;32305;46.410;17.394;2022-12-18T02:23:23;19.70;34.40
43561;DHT22;32305;46.410;17.394;2022-12-18T02:26:26;19.70;34.40
43561;DHT22;32305;46.410;17.394;2022-12-18T02:29:02;19.70;34.40
43561;DHT22;32305;46.410;17.394;2022-12-18T02:31:38;19.70;34.50
43561;DHT22;32305;46.410;17.394;2022-12-18T02:34:08;19.70;34.40
43561;DHT22;32305;46.410;17.394;2022-12-18T02:36:39;19.70;34.40
43561;DHT22;32305;46.410;17.394;2022-12-18T02:39:09;19.70;34.40
43561;DHT22;32305;46.410;17.394;2022-12-18T02:41:38;19.70;34.40
43561;DHT22;32305;46.410;17.394;2022-12-18T02:44:12;19.70;34.40
43561;DHT22;32305;46.410;17.394;2022-12-18T02:46:42;19.70;34.40
43561;DHT22;32305;46.410;17.394;2022-12-18T02:49:36;19.60;34.30
43561;DHT22;32305;46.410;17.394;2022-12-18T02:58:20;19.70;34.30
43561;DHT22;32305;46.410;17.394;2022-12-18T03:01:03;19.70;34.30
43561;DHT22;32305;46.410;17.394;2022-12-18T03:03:45;19.70;34.30
43561;DHT22;32305;46.410;17.394;2022-12-18T03:06:33;19.70;34.30
43561;DHT22;32305;46.410;17.394;2022-12-18T03:09:06;19.60;34.30
43561;DHT22;32305;46.410;17.394;2022-12-18T03:11:37;19.70;34.30
43561;DHT22;32305;46.410;17.394;2022-12-18T03:14:30;19.60;34.30
43561;DHT22;32305;46.410;17.394;2022-12-18T03:17:01;19.60;34.30
43561;DHT22;32305;46.410;17.394;2022-12-18T03:19:32;19.60;34.30
43561;DHT22;32305;46.410;17.394;2022-12-18T03:22:02;19.60;34.30
43561;DHT22;32305;46.410;17.394;2022-12-18T03:24:31;19.60;34.30
43561;DHT22;32305;46.410;17.394;2022-12-18T03:27:06;19.60;34.30
43561;DHT22;32305;46.410;17.394;2022-12-18T03:29:49;19.60;34.30
43561;DHT22;32305;46.410;17.394;2022-12-18T03:32:30;19.60;34.30
43561;DHT22;32305;46.410;17.394;2022-12-18T03:35:03;19.60;34.30
43561;DHT22;32305;46.410;17.394;2022-12-18T03:37:31;19.60;34.30
43561;DHT22;32305;46.410;17.394;2022-12-18T03:39:59;19.60;34.30
43561;DHT22;32305;46.410;17.394;2022-12-18T03:42:44;19.60;34.30
43561;DHT22;32305;46.410;17.394;2022-12-18T03:45:21;19.60;34.30
43561;DHT22;32305;46.410;17.394;2022-12-18T03:48:00;19.60;34.30
43561;DHT22;32305;46.410;17.394;2022-12-18T03:50:44;19.60;34.30
43561;DHT22;32305;46.410;17.394;2022-12-18T03:53:22;19.60;34.30
43561;DHT22;32305;46.410;17.394;2022-12-18T03:55:52;19.60;34.30
43561;DHT22;32305;46.410;17.394;2022-12-18T03:58:24;19.60;34.30
43561;DHT22;32305;46.410;17.394;2022-12-18T04:00:54;19.60;34.30
43561;DHT22;32305;46.410;17.394;2022-12-18T04:03:23;19.60;34.30
43561;DHT22;32305;46.410;17.394;2022-12-18T04:05:54;19.60;34.30
43561;DHT22;32305;46.410;17.394;2022-12-18T04:08:23;19.50;34.20
43561;DHT22;32305;46.410;17.394;2022-12-18T04:10:50;19.50;34.20
43561;DHT22;32305;46.410;17.394;2022-12-18T04:13:28;19.50;34.20
43561;DHT22;32305;46.410;17.394;2022-12-18T04:15:55;19.50;34.20
43561;DHT22;32305;46.410;17.394;2022-12-18T04:18:22;19.50;34.20
43561;DHT22;32305;46.410;17.394;2022-12-18T04:20:49;19.50;34.20
43561;DHT22;32305;46.410;17.394;2022-12-18T04:23:16;19.50;34.20
43561;DHT22;32305;46.410;17.394;2022-12-18T04:25:43;19.50;34.20
43561;DHT22;32305;46.410;17.394;2022-12-18T04:28:10;19.50;34.20
43561;DHT22;32305;46.410;17.394;2022-12-18T04:30:37;19.50;34.20
43561;DHT22;32305;46.410;17.394;2022-12-18T04:33:12;19.50;34.20
43561;DHT22;32305;46.410;17.394;2022-12-18T04:35:40;19.50;34.20
43561;DHT22;32305;46.410;17.394;2022-12-18T04:38:08;19.50;34.20
43561;DHT22;32305;46.410;17.394;2022-12-18T04:40:36;19.50;34.30
43561;DHT22;32305;46.410;17.394;2022-12-18T04:43:04;19.50;34.20
43561;DHT22;32305;46.410;17.394;2022-12-18T04:45:32;19.50;34.20
43561;DHT22;32305;46.410;17.394;2022-12-18T04:48:01;19.50;34.20
43561;DHT22;32305;46.410;17.394;2022-12-18T04:50:29;19.50;34.20
43561;DHT22;32305;46.410;17.394;2022-12-18T04:52:57;19.50;34.20
43561;DHT22;32305;46.410;17.394;2022-12-18T04:55:27;19.50;34.20
43561;DHT22;32305;46.410;17.394;2022-12-18T04:57:54;19.50;34.20
43561;DHT22;32305;46.410;17.394;2022-12-18T05:00:21;19.50;34.20
43561;DHT22;32305;46.410;17.394;2022-12-18T05:02:49;19.50;34.10
43561;DHT22;32305;46.410;17.394;2022-12-18T05:05:16;19.50;34.10
43561;DHT22;32305;46.410;17.394;2022-12-18T05:07:44;19.50;34.10
43561;DHT22;32305;46.410;17.394;2022-12-18T05:10:11;19.50;34.10
43561;DHT22;32305;46.410;17.394;2022-12-18T05:12:38;19.50;34.10
43561;DHT22;32305;46.410;17.394;2022-12-18T05:15:06;19.50;34.10
43561;DHT22;32305;46.410;17.394;2022-12-18T05:17:33;19.50;34.20
43561;DHT22;32305;46.410;17.394;2022-12-18T05:20:00;19.50;34.10
43561;DHT22;32305;46.410;17.394;2022-12-18T05:22:27;19.50;34.20
43561;DHT22;32305;46.410;17.394;2022-12-18T05:24:54;19.40;34.10
43561;DHT22;32305;46.410;17.394;2022-12-18T05:27:21;19.40;34.10
43561;DHT22;32305;46.410;17.394;2022-12-18T05:29:48;19.40;34.10
43561;DHT22;32305;46.410;17.394;2022-12-18T05:32:15;19.40;34.10
43561;DHT22;32305;46.410;17.394;2022-12-18T05:34:42;19.40;34.10
43561;DHT22;32305;46.410;17.394;2022-12-18T05:37:09;19.40;34.00
43561;DHT22;32305;46.410;17.394;2022-12-18T05:39:36;19.40;33.80
43561;DHT22;32305;46.410;17.394;2022-12-18T05:42:04;19.40;33.60
43561;DHT22;32305;46.410;17.394;2022-12-18T05:44:31;19.40;33.60
43561;DHT22;32305;46.410;17.394;2022-12-18T05:46:58;19.40;33.60
43561;DHT22;32305;46.410;17.394;2022-12-18T05:49:25;19.40;33.60
43561;DHT22;32305;46.410;17.394;2022-12-18T05:51:52;19.40;33.60
43561;DHT22;32305;46.410;17.394;2022-12-18T05:54:19;19.40;34.10
43561;DHT22;32305;46.410;17.394;2022-12-18T05:56:46;19.40;33.60
43561;DHT22;32305;46.410;17.394;2022-12-18T05:59:14;19.40;33.60
43561;DHT22;32305;46.410;17.394;2022-12-18T06:01:41;19.40;33.60
43561;DHT22;32305;46.410;17.394;2022-12-18T06:04:10;19.40;33.60
43561;DHT22;32305;46.410;17.394;2022-12-18T06:06:37;19.40;33.60
43561;DHT22;32305;46.410;17.394;2022-12-18T06:09:04;19.50;33.60
43561;DHT22;32305;46.410;17.394;2022-12-18T06:11:37;19.40;33.50
43561;DHT22;32305;46.410;17.394;2022-12-18T06:14:05;19.50;33.50
43561;DHT22;32305;46.410;17.394;2022-12-18T06:16:32;19.50;33.50
43561;DHT22;32305;46.410;17.394;2022-12-18T06:19:01;19.50;34.00
43561;DHT22;32305;46.410;17.394;2022-12-18T06:21:29;19.50;33.40
43561;DHT22;32305;46.410;17.394;2022-12-18T06:23:57;19.50;33.30
43561;DHT22;32305;46.410;17.394;2022-12-18T06:26:24;19.60;33.30
43561;DHT22;32305;46.410;17.394;2022-12-18T06:28:54;19.50;33.10
43561;DHT22;32305;46.410;17.394;2022-12-18T06:31:21;19.60;33.20
43561;DHT22;32305;46.410;17.394;2022-12-18T06:33:48;19.60;33.10
43561;DHT22;32305;46.410;17.394;2022-12-18T06:36:16;19.70;33.20
43561;DHT22;32305;46.410;17.394;2022-12-18T06:38:44;19.70;33.10
43561;DHT22;32305;46.410;17.394;2022-12-18T06:41:17;19.70;33.00
43561;DHT22;32305;46.410;17.394;2022-12-18T06:43:44;19.70;33.00
43561;DHT22;32305;46.410;17.394;2022-12-18T06:46:12;19.70;32.90
43561;DHT22;32305;46.410;17.394;2022-12-18T06:48:39;19.80;32.90
43561;DHT22;32305;46.410;17.394;2022-12-18T06:51:07;19.80;33.40
43561;DHT22;32305;46.410;17.394;2022-12-18T06:53:34;19.80;32.90
43561;DHT22;32305;46.410;17.394;2022-12-18T06:56:03;19.80;32.80
43561;DHT22;32305;46.410;17.394;2022-12-18T06:58:36;19.90;32.80
43561;DHT22;32305;46.410;17.394;2022-12-18T07:01:06;19.90;32.70
43561;DHT22;32305;46.410;17.394;2022-12-18T07:03:33;19.90;32.60
43561;DHT22;32305;46.410;17.394;2022-12-18T07:06:01;19.90;32.50
43561;DHT22;32305;46.410;17.394;2022-12-18T07:08:29;20.00;32.50
43561;DHT22;32305;46.410;17.394;2022-12-18T07:10:57;20.00;32.40
43561;DHT22;32305;46.410;17.394;2022-12-18T07:13:24;20.10;32.40
43561;DHT22;32305;46.410;17.394;2022-12-18T07:15:51;20.10;32.40
43561;DHT22;32305;46.410;17.394;2022-12-18T07:18:18;20.10;32.30
43561;DHT22;32305;46.410;17.394;2022-12-18T07:20:45;20.10;32.20
43561;DHT22;32305;46.410;17.394;2022-12-18T07:23:14;20.10;32.20
43561;DHT22;32305;46.410;17.394;2022-12-18T07:25:41;20.20;32.10
43561;DHT22;32305;46.410;17.394;2022-12-18T07:28:08;20.20;32.10
43561;DHT22;32305;46.410;17.394;2022-12-18T07:30:42;20.30;32.00
43561;DHT22;32305;46.410;17.394;2022-12-18T07:33:09;20.20;31.90
43561;DHT22;32305;46.410;17.394;2022-12-18T07:35:37;20.30;32.00
43561;DHT22;32305;46.410;17.394;2022-12-18T07:38:04;20.30;31.90
43561;DHT22;32305;46.410;17.394;2022-12-18T07:40:31;20.30;31.90
43561;DHT22;32305;46.410;17.394;2022-12-18T07:42:58;20.30;31.80
43561;DHT22;32305;46.410;17.394;2022-12-18T07:45:25;20.40;31.80
43561;DHT22;32305;46.410;17.394;2022-12-18T07:47:52;20.40;31.80
43561;DHT22;32305;46.410;17.394;2022-12-18T07:50:19;20.40;31.80
43561;DHT22;32305;46.410;17.394;2022-12-18T07:52:46;20.50;31.80
43561;DHT22;32305;46.410;17.394;2022-12-18T07:55:13;20.50;31.70
43561;DHT22;32305;46.410;17.394;2022-12-18T07:57:40;20.50;31.70
43561;DHT22;32305;46.410;17.394;2022-12-18T08:00:17;20.50;31.70
43561;DHT22;32305;46.410;17.394;2022-12-18T08:02:44;20.60;31.70
43561;DHT22;32305;46.410;17.394;2022-12-18T08:06:12;20.60;31.60
43561;DHT22;32305;46.410;17.394;2022-12-18T08:08:39;20.60;31.60
43561;DHT22;32305;46.410;17.394;2022-12-18T08:11:08;20.60;31.50
43561;DHT22;32305;46.410;17.394;2022-12-18T08:13:35;20.70;31.60
43561;DHT22;32305;46.410;17.394;2022-12-18T08:16:05;20.70;31.50
43561;DHT22;32305;46.410;17.394;2022-12-18T08:18:34;20.70;31.50
43561;DHT22;32305;46.410;17.394;2022-12-18T08:21:10;20.70;31.40
43561;DHT22;32305;46.410;17.394;2022-12-18T08:23:38;20.80;31.40
43561;DHT22;32305;46.410;17.394;2022-12-18T08:26:09;20.80;31.30
43561;DHT22;32305;46.410;17.394;2022-12-18T08:28:36;20.80;31.30
43561;DHT22;32305;46.410;17.394;2022-12-18T08:31:04;20.80;31.20
43561;DHT22;32305;46.410;17.394;2022-12-18T08:33:32;20.90;31.30
43561;DHT22;32305;46.410;17.394;2022-12-18T08:36:00;20.90;31.20
43561;DHT22;32305;46.410;17.394;2022-12-18T08:38:27;20.90;31.10
43561;DHT22;32305;46.410;17.394;2022-12-18T08:41:04;21.00;31.20
43561;DHT22;32305;46.410;17.394;2022-12-18T08:43:32;21.00;31.10
43561;DHT22;32305;46.410;17.394;2022-12-18T08:46:20;21.10;31.10
43561;DHT22;32305;46.410;17.394;2022-12-18T08:48:50;21.10;31.00
43561;DHT22;32305;46.410;17.394;2022-12-18T08:51:17;21.10;30.90
43561;DHT22;32305;46.410;17.394;2022-12-18T08:53:44;21.20;31.00
43561;DHT22;32305;46.410;17.394;2022-12-18T08:56:12;21.20;30.90
43561;DHT22;32305;46.410;17.394;2022-12-18T08:58:40;21.20;30.80
43561;DHT22;32305;46.410;17.394;2022-12-18T09:01:10;21.30;30.80
43561;DHT22;32305;46.410;17.394;2022-12-18T09:03:39;21.30;30.80
43561;DHT22;32305;46.410;17.394;2022-12-18T09:06:07;21.30;30.70
43561;DHT22;32305;46.410;17.394;2022-12-18T09:08:34;21.40;30.80
43561;DHT22;32305;46.410;17.394;2022-12-18T09:11:03;21.40;30.70
43561;DHT22;32305;46.410;17.394;2022-12-18T09:13:31;21.40;30.70
43561;DHT22;32305;46.410;17.394;2022-12-18T09:15:58;21.40;30.60
43561;DHT22;32305;46.410;17.394;2022-12-18T09:18:25;21.50;30.60
43561;DHT22;32305;46.410;17.394;2022-12-18T09:20:52;21.50;30.60
43561;DHT22;32305;46.410;17.394;2022-12-18T09:23:20;21.50;30.50
43561;DHT22;32305;46.410;17.394;2022-12-18T09:25:48;21.60;30.50
43561;DHT22;32305;46.410;17.394;2022-12-18T09:28:18;21.60;30.40
43561;DHT22;32305;46.410;17.394;2022-12-18T09:30:46;21.60;30.40
43561;DHT22;32305;46.410;17.394;2022-12-18T09:33:14;21.60;30.30
43561;DHT22;32305;46.410;17.394;2022-12-18T09:35:43;21.70;30.30
43561;DHT22;32305;46.410;17.394;2022-12-18T09:38:14;21.70;30.20
43561;DHT22;32305;46.410;17.394;2022-12-18T09:40:51;21.70;30.20
43561;DHT22;32305;46.410;17.394;2022-12-18T09:43:28;21.80;30.20
43561;DHT22;32305;46.410;17.394;2022-12-18T09:46:15;21.80;30.10
43561;DHT22;32305;46.410;17.394;2022-12-18T09:48:50;21.80;30.00
43561;DHT22;32305;46.410;17.394;2022-12-18T09:51:26;21.80;30.00
43561;DHT22;32305;46.410;17.394;2022-12-18T09:54:00;21.90;30.00
43561;DHT22;32305;46.410;17.394;2022-12-18T09:56:39;21.90;30.10
43561;DHT22;32305;46.410;17.394;2022-12-18T09:59:18;21.90;30.00
43561;DHT22;32305;46.410;17.394;2022-12-18T10:01:46;21.90;30.00
43561;DHT22;32305;46.410;17.394;2022-12-18T10:04:13;21.90;30.00
43561;DHT22;32305;46.410;17.394;2022-12-18T10:06:58;22.00;30.00
43561;DHT22;32305;46.410;17.394;2022-12-18T10:09:58;22.00;30.00
43561;DHT22;32305;46.410;17.394;2022-12-18T10:12:36;22.00;30.00
43561;DHT22;32305;46.410;17.394;2022-12-18T10:15:34;22.00;30.00
43561;DHT22;32305;46.410;17.394;2022-12-18T10:21:10;22.00;30.00
43561;DHT22;32305;46.410;17.394;2022-12-18T10:24:03;22.00;30.00
43561;DHT22;32305;46.410;17.394;2022-12-18T10:26:32;22.00;30.00
43561;DHT22;32305;46.410;17.394;2022-12-18T10:28:59;22.10;30.00
43561;DHT22;32305;46.410;17.394;2022-12-18T10:31:31;22.10;30.00
43561;DHT22;32305;46.410;17.394;2022-12-18T10:33:58;22.10;30.00
43561;DHT22;32305;46.410;17.394;2022-12-18T10:36:25;22.10;30.00
43561;DHT22;32305;46.410;17.394;2022-12-18T10:38:52;22.10;30.00
43561;DHT22;32305;46.410;17.394;2022-12-18T10:41:25;22.20;30.00
43561;DHT22;32305;46.410;17.394;2022-12-18T10:44:16;22.10;29.90
43561;DHT22;32305;46.410;17.394;2022-12-18T10:46:45;22.20;29.90
43561;DHT22;32305;46.410;17.394;2022-12-18T10:49:25;22.20;29.90
43561;DHT22;32305;46.410;17.394;2022-12-18T10:52:14;22.20;29.90
43561;DHT22;32305;46.410;17.394;2022-12-18T10:54:55;22.20;29.90
43561;DHT22;32305;46.410;17.394;2022-12-18T10:57:39;22.30;29.90
43561;DHT22;32305;46.410;17.394;2022-12-18T11:00:29;22.30;29.90
43561;DHT22;32305;46.410;17.394;2022-12-18T11:02:57;22.20;29.80
43561;DHT22;32305;46.410;17.394;2022-12-18T11:05:29;22.30;29.80
43561;DHT22;32305;46.410;17.394;2022-12-18T11:07:58;22.30;29.80
43561;DHT22;32305;46.410;17.394;2022-12-18T11:10:37;22.30;29.80
43561;DHT22;32305;46.410;17.394;2022-12-18T11:13:19;22.40;29.80
43561;DHT22;32305;46.410;17.394;2022-12-18T11:15:47;22.30;29.80
43561;DHT22;32305;46.410;17.394;2022-12-18T11:18:33;22.40;29.70
43561;DHT22;32305;46.410;17.394;2022-12-18T11:21:08;22.40;29.70
43561;DHT22;32305;46.410;17.394;2022-12-18T11:23:36;22.40;29.70
43561;DHT22;32305;46.410;17.394;2022-12-18T11:26:04;22.40;29.70
43561;DHT22;32305;46.410;17.394;2022-12-18T11:28:46;22.40;29.70
43561;DHT22;32305;46.410;17.394;2022-12-18T11:31:24;22.40;29.70
43561;DHT22;32305;46.410;17.394;2022-12-18T11:33:59;22.50;29.70
43561;DHT22;32305;46.410;17.394;2022-12-18T11:36:47;22.50;29.60
43561;DHT22;32305;46.410;17.394;2022-12-18T11:39:29;22.50;29.60
43561;DHT22;32305;46.410;17.394;2022-12-18T11:42:12;22.50;29.60
43561;DHT22;32305;46.410;17.394;2022-12-18T11:44:49;22.50;29.60
43561;DHT22;32305;46.410;17.394;2022-12-18T11:47:38;22.50;29.50
43561;DHT22;32305;46.410;17.394;2022-12-18T11:50:18;22.50;29.50
43561;DHT22;32305;46.410;17.394;2022-12-18T11:52:45;22.50;29.50
43561;DHT22;32305;46.410;17.394;2022-12-18T11:55:37;22.50;29.40
43561;DHT22;32305;46.410;17.394;2022-12-18T11:58:16;22.60;29.40
43561;DHT22;32305;46.410;17.394;2022-12-18T12:01:05;22.60;29.40
43561;DHT22;32305;46.410;17.394;2022-12-18T12:03:51;22.50;29.40
43561;DHT22;32305;46.410;17.394;2022-12-18T12:06:49;22.60;29.40
43561;DHT22;32305;46.410;17.394;2022-12-18T12:10:25;22.60;29.50
43561;DHT22;32305;46.410;17.394;2022-12-18T12:12:48;22.60;29.40
43561;DHT22;32305;46.410;17.394;2022-12-18T12:15:53;22.60;29.40
43561;DHT22;32305;46.410;17.394;2022-12-18T12:18:31;22.50;29.30
43561;DHT22;32305;46.410;17.394;2022-12-18T12:21:16;22.60;29.40
43561;DHT22;32305;46.410;17.394;2022-12-18T12:24:19;22.60;29.30
43561;DHT22;32305;46.410;17.394;2022-12-18T12:27:27;22.60;29.30
43561;DHT22;32305;46.410;17.394;2022-12-18T12:30:18;22.60;29.40
43561;DHT22;32305;46.410;17.394;2022-12-18T12:33:12;22.60;29.30
43561;DHT22;32305;46.410;17.394;2022-12-18T12:36:00;22.60;29.30
43561;DHT22;32305;46.410;17.394;2022-12-18T12:38:40;22.60;29.30
43561;DHT22;32305;46.410;17.394;2022-12-18T12:41:19;22.60;29.30
43561;DHT22;32305;46.410;17.394;2022-12-18T12:44:16;22.60;29.30
43561;DHT22;32305;46.410;17.394;2022-12-18T12:46:46;22.60;29.30
43561;DHT22;32305;46.410;17.394;2022-12-18T12:49:17;22.60;29.30
43561;DHT22;32305;46.410;17.394;2022-12-18T12:52:04;22.60;29.30
43561;DHT22;32305;46.410;17.394;2022-12-18T12:54:32;22.60;29.30
43561;DHT22;32305;46.410;17.394;2022-12-18T12:57:30;22.60;29.20
43561;DHT22;32305;46.410;17.394;2022-12-18T13:00:18;22.60;29.30
43561;DHT22;32305;46.410;17.394;2022-12-18T13:03:12;22.60;29.30
43561;DHT22;32305;46.410;17.394;2022-12-18T13:06:00;22.60;29.20
43561;DHT22;32305;46.410;17.394;2022-12-18T13:08:50;22.60;29.30
43561;DHT22;32305;46.410;17.394;2022-12-18T13:11:35;22.60;29.20
43561;DHT22;32305;46.410;17.394;2022-12-18T13:14:34;22.60;29.20
43561;DHT22;32305;46.410;17.394;2022-12-18T13:17:24;22.60;29.20
43561;DHT22;32305;46.410;17.394;2022-12-18T13:20:08;22.60;29.20
43561;DHT22;32305;46.410;17.394;2022-12-18T13:22:40;22.60;29.20
43561;DHT22;32305;46.410;17.394;2022-12-18T13:25:29;22.60;29.30
43561;DHT22;32305;46.410;17.394;2022-12-18T13:28:12;22.60;29.20
43561;DHT22;32305;46.410;17.394;2022-12-18T13:30:48;22.60;29.20
43561;DHT22;32305;46.410;17.394;2022-12-18T13:33:40;22.60;29.20
43561;DHT22;32305;46.410;17.394;2022-12-18T13:36:30;22.60;29.20
43561;DHT22;32305;46.410;17.394;2022-12-18T13:39:15;22.50;29.20
43561;DHT22;32305;46.410;17.394;2022-12-18T13:45:39;22.50;29.10
43561;DHT22;32305;46.410;17.394;2022-12-18T13:48:22;22.60;29.10
43561;DHT22;32305;46.410;17.394;2022-12-18T13:50:59;22.50;29.10
43561;DHT22;32305;46.410;17.394;2022-12-18T13:53:38;22.50;29.10
43561;DHT22;32305;46.410;17.394;2022-12-18T13:56:07;22.50;29.10
43561;DHT22;32305;46.410;17.394;2022-12-18T13:58:34;22.50;29.10
43561;DHT22;32305;46.410;17.394;2022-12-18T14:01:01;22.50;29.10
43561;DHT22;32305;46.410;17.394;2022-12-18T14:03:31;22.50;29.10
43561;DHT22;32305;46.410;17.394;2022-12-18T14:06:03;22.50;29.10
43561;DHT22;32305;46.410;17.394;2022-12-18T14:08:38;22.50;29.10
43561;DHT22;32305;46.410;17.394;2022-12-18T14:11:07;22.50;29.10
43561;DHT22;32305;46.410;17.394;2022-12-18T14:13:46;22.50;29.10
43561;DHT22;32305;46.410;17.394;2022-12-18T14:16:15;22.50;29.20
43561;DHT22;32305;46.410;17.394;2022-12-18T14:18:52;22.40;29.10
43561;DHT22;32305;46.410;17.394;2022-12-18T14:21:40;22.40;29.10
43561;DHT22;32305;46.410;17.394;2022-12-18T14:24:15;22.40;29.10
43561;DHT22;32305;46.410;17.394;2022-12-18T14:26:46;22.40;29.10
43561;DHT22;32305;46.410;17.394;2022-12-18T14:29:27;22.40;29.10
43561;DHT22;32305;46.410;17.394;2022-12-18T14:32:14;22.40;29.20
43561;DHT22;32305;46.410;17.394;2022-12-18T14:34:46;22.40;29.20
43561;DHT22;32305;46.410;17.394;2022-12-18T14:37:16;22.30;29.20
43561;DHT22;32305;46.410;17.394;2022-12-18T14:40:04;22.30;29.20
43561;DHT22;32305;46.410;17.394;2022-12-18T14:42:37;22.30;29.20
43561;DHT22;32305;46.410;17.394;2022-12-18T14:45:38;22.30;29.20
43561;DHT22;32305;46.410;17.394;2022-12-18T14:48:17;22.30;29.20
43561;DHT22;32305;46.410;17.394;2022-12-18T14:51:00;22.20;29.10
43561;DHT22;32305;46.410;17.394;2022-12-18T14:53:37;22.20;29.20
43561;DHT22;32305;46.410;17.394;2022-12-18T14:56:14;22.20;29.20
43561;DHT22;32305;46.410;17.394;2022-12-18T14:58:48;22.20;29.20
43561;DHT22;32305;46.410;17.394;2022-12-18T15:01:27;22.20;29.20
43561;DHT22;32305;46.410;17.394;2022-12-18T15:03:56;22.10;29.20
43561;DHT22;32305;46.410;17.394;2022-12-18T15:06:28;22.10;29.20
43561;DHT22;32305;46.410;17.394;2022-12-18T15:08:58;22.10;29.30
43561;DHT22;32305;46.410;17.394;2022-12-18T15:11:28;22.10;29.40
43561;DHT22;32305;46.410;17.394;2022-12-18T15:13:58;22.20;29.40
43561;DHT22;32305;46.410;17.394;2022-12-18T15:16:25;22.10;29.40
43561;DHT22;32305;46.410;17.394;2022-12-18T15:18:53;22.10;29.40
43561;DHT22;32305;46.410;17.394;2022-12-18T15:21:20;22.10;29.50
43561;DHT22;32305;46.410;17.394;2022-12-18T15:23:50;22.10;29.50
43561;DHT22;32305;46.410;17.394;2022-12-18T15:26:20;22.00;29.60
43561;DHT22;32305;46.410;17.394;2022-12-18T15:29:01;22.00;29.60
43561;DHT22;32305;46.410;17.394;2022-12-18T15:31:32;22.00;29.70
43561;DHT22;32305;46.410;17.394;2022-12-18T15:34:12;21.90;29.80
43561;DHT22;32305;46.410;17.394;2022-12-18T15:36:40;21.90;29.90
43561;DHT22;32305;46.410;17.394;2022-12-18T15:39:11;21.80;29.90
43561;DHT22;32305;46.410;17.394;2022-12-18T15:41:39;21.80;30.00
43561;DHT22;32305;46.410;17.394;2022-12-18T15:44:22;21.80;30.00
43561;DHT22;32305;46.410;17.394;2022-12-18T15:46:50;21.70;30.00
43561;DHT22;32305;46.410;17.394;2022-12-18T15:49:17;21.70;30.00
43561;DHT22;32305;46.410;17.394;2022-12-18T15:51:51;21.60;30.10
43561;DHT22;32305;46.410;17.394;2022-12-18T15:54:19;21.60;30.20
43561;DHT22;32305;46.410;17.394;2022-12-18T15:57:09;21.60;30.30
43561;DHT22;32305;46.410;17.394;2022-12-18T15:59:51;21.50;30.30
43561;DHT22;32305;46.410;17.394;2022-12-18T16:02:20;21.50;30.40
43561;DHT22;32305;46.410;17.394;2022-12-18T16:04:51;21.50;30.50
43561;DHT22;32305;46.410;17.394;2022-12-18T16:07:18;21.40;30.50
43561;DHT22;32305;46.410;17.394;2022-12-18T16:09:50;21.40;30.60